Impacts TAF Board INFO
FOR SITUATIONAL AWARENESS. NOT TO BE USED FOR FLIGHT PLANNING PURPOSES.
IDs:

KPHX - Phoenix/Sky Harbor, AZ, US

Issued at 1444 UTC 19 Aug 2017
Updated at 1509 UTC 19 Aug 2017
Potential Impact None Slight Moderate High
Time1451Z 19/16Z 19/17Z 19/18Z 19/19Z 19/20Z 19/21Z 19/22Z 19/23Z 20/00Z 20/01Z 20/02Z 20/03Z 20/04Z>>
Type OBS PRVL PRVL PRVL PRVL PRVL PRVL PRVL PRVL PRVL PRVL PRVL PRVL PRVL
VIS 10 >6 >6 >6 >6 >6 >6 >6 >6 >6 >6 >6 >6 >6
CIG -- -- -- -- -- -- -- -- -- -- -- -- -- --
Cover SCT SCT SCT SCT SCT SCT SCT SCT SCT SCT SCT SCT SCT SCT
FltCat VFR VFR VFR VFR VFR VFR VFR VFR VFR VFR VFR VFR VFR VFR
WX -- -- -- -- -- -- -- -- -- -- -- -- -- --
WDir 90 100 100 260 260 260 260 260 260 260 260 260 260 260
WSpd 6 6 6 8 8 8 8 8 8 8 8 8 8 8
WGst -- -- -- -- -- -- -- -- -- -- -- -- -- --

Raw TAF
KPHX 191444Z 1915/2018 10006KT P6SM FEW120 SCT250
  FM191800 26008KT P6SM FEW120 SCT250
  FM201000 13006KT P6SM SCT120 SCT250


Raw METAR
KPHX 191451Z 09006KT 10SM FEW120 SCT150 SCT250 30/08 A2991 RMK AO2 SLP107 T03000078 51018
KPHX 191351Z 10006KT 10SM FEW120 SCT150 SCT250 28/08 A2990 RMK AO2 SLP104 T02830078
KPHX 191251Z 08005KT 10SM FEW120 SCT150 SCT250 28/08 A2987 RMK AO2 SLP094 T02780083

METAR Board
Radar Display
Forecast Discussion

FOR SITUATIONAL AWARENESS. NOT TO BE USED FOR FLIGHT PLANNING PURPOSES.